sensor_id;sensor_type;location;lat;lon;timestamp;temperature;humidity
7518;DHT22;3800;48.922;9.444;2023-07-31T00:00:42;15.70;99.90
7518;DHT22;3800;48.922;9.444;2023-07-31T00:03:11;15.60;99.90
7518;DHT22;3800;48.922;9.444;2023-07-31T00:05:40;15.60;99.90
7518;DHT22;3800;48.922;9.444;2023-07-31T00:08:08;15.60;99.90
7518;DHT22;3800;48.922;9.444;2023-07-31T00:10:37;15.50;99.90
7518;DHT22;3800;48.922;9.444;2023-07-31T00:13:06;15.50;99.90
7518;DHT22;3800;48.922;9.444;2023-07-31T00:15:34;15.40;99.90
7518;DHT22;3800;48.922;9.444;2023-07-31T00:18:02;15.40;99.90
7518;DHT22;3800;48.922;9.444;2023-07-31T00:20:32;15.40;99.90
7518;DHT22;3800;48.922;9.444;2023-07-31T00:23:00;15.40;99.90
7518;DHT22;3800;48.922;9.444;2023-07-31T00:25:28;15.40;99.90
7518;DHT22;3800;48.922;9.444;2023-07-31T00:27:56;15.30;99.90
7518;DHT22;3800;48.922;9.444;2023-07-31T00:30:25;15.30;99.90
7518;DHT22;3800;48.922;9.444;2023-07-31T00:32:53;15.30;99.90
7518;DHT22;3800;48.922;9.444;2023-07-31T00:35:21;15.30;99.90
7518;DHT22;3800;48.922;9.444;2023-07-31T00:37:51;15.30;99.90
7518;DHT22;3800;48.922;9.444;2023-07-31T00:40:20;15.30;99.90
7518;DHT22;3800;48.922;9.444;2023-07-31T00:42:48;15.30;99.90
7518;DHT22;3800;48.922;9.444;2023-07-31T00:45:17;15.30;99.90
7518;DHT22;3800;48.922;9.444;2023-07-31T00:47:46;15.30;99.90
7518;DHT22;3800;48.922;9.444;2023-07-31T00:50:14;15.30;99.90
7518;DHT22;3800;48.922;9.444;2023-07-31T00:52:42;15.20;99.90
7518;DHT22;3800;48.922;9.444;2023-07-31T00:55:11;15.20;99.90
7518;DHT22;3800;48.922;9.444;2023-07-31T00:57:39;15.20;99.90
7518;DHT22;3800;48.922;9.444;2023-07-31T01:00:08;15.20;99.90
7518;DHT22;3800;48.922;9.444;2023-07-31T01:02:36;15.10;99.90
7518;DHT22;3800;48.922;9.444;2023-07-31T01:05:05;15.10;99.90
7518;DHT22;3800;48.922;9.444;2023-07-31T01:07:42;15.00;99.90
7518;DHT22;3800;48.922;9.444;2023-07-31T01:10:15;15.00;99.90
7518;DHT22;3800;48.922;9.444;2023-07-31T01:12:40;14.90;99.90
7518;DHT22;3800;48.922;9.444;2023-07-31T01:15:09;14.90;99.90
7518;DHT22;3800;48.922;9.444;2023-07-31T01:17:38;14.90;99.90
7518;DHT22;3800;48.922;9.444;2023-07-31T01:20:11;14.90;99.90
7518;DHT22;3800;48.922;9.444;2023-07-31T01:25:44;14.90;99.90
7518;DHT22;3800;48.922;9.444;2023-07-31T01:28:09;14.80;99.90
7518;DHT22;3800;48.922;9.444;2023-07-31T01:30:37;14.70;99.90
7518;DHT22;3800;48.922;9.444;2023-07-31T01:33:05;14.70;99.90
7518;DHT22;3800;48.922;9.444;2023-07-31T01:35:34;14.60;99.90
7518;DHT22;3800;48.922;9.444;2023-07-31T01:38:02;14.60;99.90
7518;DHT22;3800;48.922;9.444;2023-07-31T01:40:30;14.50;99.90
7518;DHT22;3800;48.922;9.444;2023-07-31T01:42:59;14.40;99.90
7518;DHT22;3800;48.922;9.444;2023-07-31T01:45:27;14.40;99.90
7518;DHT22;3800;48.922;9.444;2023-07-31T01:47:55;14.40;99.90
7518;DHT22;3800;48.922;9.444;2023-07-31T01:50:23;14.30;99.90
7518;DHT22;3800;48.922;9.444;2023-07-31T01:52:52;14.30;99.90
7518;DHT22;3800;48.922;9.444;2023-07-31T01:55:20;14.30;99.90
7518;DHT22;3800;48.922;9.444;2023-07-31T01:57:48;14.30;99.90
7518;DHT22;3800;48.922;9.444;2023-07-31T02:00:16;14.30;99.90
7518;DHT22;3800;48.922;9.444;2023-07-31T02:02:45;14.30;99.90
7518;DHT22;3800;48.922;9.444;2023-07-31T02:05:13;14.40;99.90
7518;DHT22;3800;48.922;9.444;2023-07-31T02:07:42;14.40;99.90
7518;DHT22;3800;48.922;9.444;2023-07-31T02:10:10;14.40;99.90
7518;DHT22;3800;48.922;9.444;2023-07-31T02:12:41;14.50;99.90
7518;DHT22;3800;48.922;9.444;2023-07-31T02:15:09;14.50;99.90
7518;DHT22;3800;48.922;9.444;2023-07-31T02:17:38;14.50;99.90
7518;DHT22;3800;48.922;9.444;2023-07-31T02:20:07;14.60;99.90
7518;DHT22;3800;48.922;9.444;2023-07-31T02:22:36;14.60;99.90
7518;DHT22;3800;48.922;9.444;2023-07-31T02:25:05;14.60;99.90
7518;DHT22;3800;48.922;9.444;2023-07-31T02:27:33;14.60;99.90
7518;DHT22;3800;48.922;9.444;2023-07-31T02:30:02;14.60;99.90
7518;DHT22;3800;48.922;9.444;2023-07-31T02:32:30;14.60;99.90
7518;DHT22;3800;48.922;9.444;2023-07-31T02:34:58;14.70;99.90
7518;DHT22;3800;48.922;9.444;2023-07-31T02:37:27;14.70;99.90
7518;DHT22;3800;48.922;9.444;2023-07-31T02:39:55;14.70;99.90
7518;DHT22;3800;48.922;9.444;2023-07-31T02:42:24;14.70;99.90
7518;DHT22;3800;48.922;9.444;2023-07-31T02:44:52;14.70;99.90
7518;DHT22;3800;48.922;9.444;2023-07-31T02:47:21;14.80;99.90
7518;DHT22;3800;48.922;9.444;2023-07-31T02:49:50;14.80;99.90
7518;DHT22;3800;48.922;9.444;2023-07-31T02:52:18;14.80;99.90
7518;DHT22;3800;48.922;9.444;2023-07-31T02:54:46;14.80;99.90
7518;DHT22;3800;48.922;9.444;2023-07-31T02:57:15;14.80;99.90
7518;DHT22;3800;48.922;9.444;2023-07-31T02:59:44;14.80;99.90
7518;DHT22;3800;48.922;9.444;2023-07-31T03:02:12;14.80;99.90
7518;DHT22;3800;48.922;9.444;2023-07-31T03:04:41;14.90;99.90
7518;DHT22;3800;48.922;9.444;2023-07-31T03:07:09;14.90;99.90
7518;DHT22;3800;48.922;9.444;2023-07-31T03:09:37;14.90;99.90
7518;DHT22;3800;48.922;9.444;2023-07-31T03:12:07;14.90;99.90
7518;DHT22;3800;48.922;9.444;2023-07-31T03:14:36;14.90;99.90
7518;DHT22;3800;48.922;9.444;2023-07-31T03:17:04;14.90;99.90
7518;DHT22;3800;48.922;9.444;2023-07-31T03:19:32;14.90;99.90
7518;DHT22;3800;48.922;9.444;2023-07-31T03:22:00;14.90;99.90
7518;DHT22;3800;48.922;9.444;2023-07-31T03:24:30;14.90;99.90
7518;DHT22;3800;48.922;9.444;2023-07-31T03:26:59;14.90;99.90
7518;DHT22;3800;48.922;9.444;2023-07-31T03:29:27;14.90;99.90
7518;DHT22;3800;48.922;9.444;2023-07-31T03:31:55;15.00;99.90
7518;DHT22;3800;48.922;9.444;2023-07-31T03:34:23;14.90;99.90
7518;DHT22;3800;48.922;9.444;2023-07-31T03:36:52;15.00;99.90
7518;DHT22;3800;48.922;9.444;2023-07-31T03:39:20;15.00;99.90
7518;DHT22;3800;48.922;9.444;2023-07-31T03:41:48;15.00;99.90
7518;DHT22;3800;48.922;9.444;2023-07-31T03:44:17;15.00;99.90
7518;DHT22;3800;48.922;9.444;2023-07-31T03:46:46;15.00;99.90
7518;DHT22;3800;48.922;9.444;2023-07-31T03:49:14;15.00;99.90
7518;DHT22;3800;48.922;9.444;2023-07-31T03:51:42;15.00;99.90
7518;DHT22;3800;48.922;9.444;2023-07-31T03:54:11;15.00;99.90
7518;DHT22;3800;48.922;9.444;2023-07-31T03:56:39;15.00;99.90
7518;DHT22;3800;48.922;9.444;2023-07-31T03:59:07;15.00;99.90
7518;DHT22;3800;48.922;9.444;2023-07-31T04:01:36;15.00;99.90
7518;DHT22;3800;48.922;9.444;2023-07-31T04:04:05;14.90;99.90
7518;DHT22;3800;48.922;9.444;2023-07-31T04:06:34;14.90;99.90
7518;DHT22;3800;48.922;9.444;2023-07-31T04:09:03;14.90;99.90
7518;DHT22;3800;48.922;9.444;2023-07-31T04:11:31;14.90;99.90
7518;DHT22;3800;48.922;9.444;2023-07-31T04:14:01;14.90;99.90
7518;DHT22;3800;48.922;9.444;2023-07-31T04:16:29;14.90;99.90
7518;DHT22;3800;48.922;9.444;2023-07-31T04:18:57;14.90;99.90
7518;DHT22;3800;48.922;9.444;2023-07-31T04:21:26;14.90;99.90
7518;DHT22;3800;48.922;9.444;2023-07-31T04:23:56;14.90;99.90
7518;DHT22;3800;48.922;9.444;2023-07-31T04:26:24;15.00;99.90
7518;DHT22;3800;48.922;9.444;2023-07-31T04:28:52;15.00;99.90
7518;DHT22;3800;48.922;9.444;2023-07-31T04:31:21;15.00;99.90
7518;DHT22;3800;48.922;9.444;2023-07-31T04:33:49;15.00;99.90
7518;DHT22;3800;48.922;9.444;2023-07-31T04:36:18;15.00;99.90
7518;DHT22;3800;48.922;9.444;2023-07-31T04:38:47;15.10;99.90
7518;DHT22;3800;48.922;9.444;2023-07-31T04:41:15;15.00;99.90
7518;DHT22;3800;48.922;9.444;2023-07-31T04:43:43;15.10;99.90
7518;DHT22;3800;48.922;9.444;2023-07-31T04:46:12;15.10;99.90
7518;DHT22;3800;48.922;9.444;2023-07-31T04:48:40;15.10;99.90
7518;DHT22;3800;48.922;9.444;2023-07-31T04:51:09;15.20;99.90
7518;DHT22;3800;48.922;9.444;2023-07-31T04:53:37;15.20;99.90
7518;DHT22;3800;48.922;9.444;2023-07-31T04:56:05;15.20;99.90
7518;DHT22;3800;48.922;9.444;2023-07-31T04:58:34;15.20;99.90
7518;DHT22;3800;48.922;9.444;2023-07-31T05:01:02;15.30;99.90
7518;DHT22;3800;48.922;9.444;2023-07-31T05:03:30;15.30;99.90
7518;DHT22;3800;48.922;9.444;2023-07-31T05:05:59;15.40;99.90
7518;DHT22;3800;48.922;9.444;2023-07-31T05:08:28;15.40;99.90
7518;DHT22;3800;48.922;9.444;2023-07-31T05:10:56;15.40;99.90
7518;DHT22;3800;48.922;9.444;2023-07-31T05:13:25;15.50;99.90
7518;DHT22;3800;48.922;9.444;2023-07-31T05:15:53;15.40;99.90
7518;DHT22;3800;48.922;9.444;2023-07-31T05:18:21;15.50;99.90
7518;DHT22;3800;48.922;9.444;2023-07-31T05:20:51;15.50;99.90
7518;DHT22;3800;48.922;9.444;2023-07-31T05:23:20;15.60;99.90
7518;DHT22;3800;48.922;9.444;2023-07-31T05:25:48;15.60;99.90
7518;DHT22;3800;48.922;9.444;2023-07-31T05:28:16;15.60;99.90
7518;DHT22;3800;48.922;9.444;2023-07-31T05:30:45;15.60;99.90
7518;DHT22;3800;48.922;9.444;2023-07-31T05:33:13;15.60;99.90
7518;DHT22;3800;48.922;9.444;2023-07-31T05:35:41;15.70;99.90
7518;DHT22;3800;48.922;9.444;2023-07-31T05:38:10;15.70;99.90
7518;DHT22;3800;48.922;9.444;2023-07-31T05:40:38;15.70;99.90
7518;DHT22;3800;48.922;9.444;2023-07-31T05:43:06;15.70;99.90
7518;DHT22;3800;48.922;9.444;2023-07-31T05:45:35;15.80;99.90
7518;DHT22;3800;48.922;9.444;2023-07-31T05:48:03;15.90;99.90
7518;DHT22;3800;48.922;9.444;2023-07-31T05:50:32;15.90;99.90
7518;DHT22;3800;48.922;9.444;2023-07-31T05:53:00;16.00;99.90
7518;DHT22;3800;48.922;9.444;2023-07-31T05:55:28;16.10;99.90
7518;DHT22;3800;48.922;9.444;2023-07-31T05:57:57;16.30;99.90
7518;DHT22;3800;48.922;9.444;2023-07-31T06:00:26;16.30;99.90
7518;DHT22;3800;48.922;9.444;2023-07-31T06:02:54;16.40;99.90
7518;DHT22;3800;48.922;9.444;2023-07-31T06:05:24;16.40;99.90
7518;DHT22;3800;48.922;9.444;2023-07-31T06:07:54;16.60;99.90
7518;DHT22;3800;48.922;9.444;2023-07-31T06:10:22;16.60;99.90
7518;DHT22;3800;48.922;9.444;2023-07-31T06:12:51;16.60;99.90
7518;DHT22;3800;48.922;9.444;2023-07-31T06:15:19;16.60;99.90
7518;DHT22;3800;48.922;9.444;2023-07-31T06:17:47;16.70;99.90
7518;DHT22;3800;48.922;9.444;2023-07-31T06:20:16;16.70;99.90
7518;DHT22;3800;48.922;9.444;2023-07-31T06:22:44;16.80;99.90
7518;DHT22;3800;48.922;9.444;2023-07-31T06:25:12;16.90;99.90
7518;DHT22;3800;48.922;9.444;2023-07-31T06:27:42;17.10;99.90
7518;DHT22;3800;48.922;9.444;2023-07-31T06:30:11;17.10;99.90
7518;DHT22;3800;48.922;9.444;2023-07-31T06:32:42;17.20;99.90
7518;DHT22;3800;48.922;9.444;2023-07-31T06:35:11;17.30;99.90
7518;DHT22;3800;48.922;9.444;2023-07-31T06:37:39;17.30;99.90
7518;DHT22;3800;48.922;9.444;2023-07-31T06:40:09;17.40;99.90
7518;DHT22;3800;48.922;9.444;2023-07-31T06:42:37;17.50;99.90
7518;DHT22;3800;48.922;9.444;2023-07-31T06:45:07;17.60;99.90
7518;DHT22;3800;48.922;9.444;2023-07-31T06:47:36;17.80;99.90
7518;DHT22;3800;48.922;9.444;2023-07-31T06:50:05;17.80;99.90
7518;DHT22;3800;48.922;9.444;2023-07-31T06:52:33;17.90;99.90
7518;DHT22;3800;48.922;9.444;2023-07-31T06:55:03;18.10;99.90
7518;DHT22;3800;48.922;9.444;2023-07-31T06:57:31;18.20;99.90
7518;DHT22;3800;48.922;9.444;2023-07-31T07:00:00;18.30;99.90
7518;DHT22;3800;48.922;9.444;2023-07-31T07:02:28;18.40;99.90
7518;DHT22;3800;48.922;9.444;2023-07-31T07:04:56;18.50;99.90
7518;DHT22;3800;48.922;9.444;2023-07-31T07:07:26;18.70;99.90
7518;DHT22;3800;48.922;9.444;2023-07-31T07:09:53;18.60;99.90
7518;DHT22;3800;48.922;9.444;2023-07-31T07:12:22;18.70;99.90
7518;DHT22;3800;48.922;9.444;2023-07-31T07:14:50;18.90;99.90
7518;DHT22;3800;48.922;9.444;2023-07-31T07:17:20;19.00;99.90
7518;DHT22;3800;48.922;9.444;2023-07-31T07:19:48;19.00;99.90
7518;DHT22;3800;48.922;9.444;2023-07-31T07:22:17;19.00;99.90
7518;DHT22;3800;48.922;9.444;2023-07-31T07:24:45;19.10;99.90
7518;DHT22;3800;48.922;9.444;2023-07-31T07:27:13;19.20;99.90
7518;DHT22;3800;48.922;9.444;2023-07-31T07:29:41;19.30;99.90
7518;DHT22;3800;48.922;9.444;2023-07-31T07:32:11;19.40;99.90
7518;DHT22;3800;48.922;9.444;2023-07-31T07:34:39;19.50;99.90
7518;DHT22;3800;48.922;9.444;2023-07-31T07:37:07;19.70;99.90
7518;DHT22;3800;48.922;9.444;2023-07-31T07:39:36;19.80;99.90
7518;DHT22;3800;48.922;9.444;2023-07-31T07:42:05;19.80;99.90
7518;DHT22;3800;48.922;9.444;2023-07-31T07:44:33;19.70;99.90
7518;DHT22;3800;48.922;9.444;2023-07-31T07:47:01;19.70;99.90
7518;DHT22;3800;48.922;9.444;2023-07-31T07:49:30;19.60;99.90
7518;DHT22;3800;48.922;9.444;2023-07-31T07:51:58;19.60;99.90
7518;DHT22;3800;48.922;9.444;2023-07-31T07:54:26;19.70;99.90
7518;DHT22;3800;48.922;9.444;2023-07-31T07:56:54;19.70;99.90
7518;DHT22;3800;48.922;9.444;2023-07-31T07:59:23;19.80;99.90
7518;DHT22;3800;48.922;9.444;2023-07-31T08:01:51;19.80;99.90
7518;DHT22;3800;48.922;9.444;2023-07-31T08:04:20;19.90;99.90
7518;DHT22;3800;48.922;9.444;2023-07-31T08:06:50;19.90;99.90
7518;DHT22;3800;48.922;9.444;2023-07-31T08:09:19;19.80;99.90
7518;DHT22;3800;48.922;9.444;2023-07-31T08:11:47;19.80;99.90
7518;DHT22;3800;48.922;9.444;2023-07-31T08:14:15;19.70;99.90
7518;DHT22;3800;48.922;9.444;2023-07-31T08:16:44;19.70;99.90
7518;DHT22;3800;48.922;9.444;2023-07-31T08:19:12;19.70;99.90
7518;DHT22;3800;48.922;9.444;2023-07-31T08:21:41;19.60;99.90
7518;DHT22;3800;48.922;9.444;2023-07-31T08:24:09;19.70;99.90
7518;DHT22;3800;48.922;9.444;2023-07-31T08:26:38;19.60;99.90
7518;DHT22;3800;48.922;9.444;2023-07-31T08:29:07;19.60;99.90
7518;DHT22;3800;48.922;9.444;2023-07-31T08:31:35;19.60;99.90
7518;DHT22;3800;48.922;9.444;2023-07-31T08:34:04;19.50;99.90
7518;DHT22;3800;48.922;9.444;2023-07-31T08:36:33;19.50;99.90
7518;DHT22;3800;48.922;9.444;2023-07-31T08:39:01;19.50;99.90
7518;DHT22;3800;48.922;9.444;2023-07-31T08:41:29;19.50;99.90
7518;DHT22;3800;48.922;9.444;2023-07-31T08:43:57;19.50;99.90
7518;DHT22;3800;48.922;9.444;2023-07-31T08:46:26;19.70;99.90
7518;DHT22;3800;48.922;9.444;2023-07-31T08:48:54;19.90;99.90
7518;DHT22;3800;48.922;9.444;2023-07-31T08:51:22;20.10;99.90
7518;DHT22;3800;48.922;9.444;2023-07-31T08:53:52;20.20;99.90
7518;DHT22;3800;48.922;9.444;2023-07-31T08:56:20;20.30;99.90
7518;DHT22;3800;48.922;9.444;2023-07-31T08:58:49;20.50;99.90
7518;DHT22;3800;48.922;9.444;2023-07-31T09:01:17;20.80;99.90
7518;DHT22;3800;48.922;9.444;2023-07-31T09:03:45;20.90;99.90
7518;DHT22;3800;48.922;9.444;2023-07-31T09:06:13;21.10;99.90
7518;DHT22;3800;48.922;9.444;2023-07-31T09:08:42;21.10;99.90
7518;DHT22;3800;48.922;9.444;2023-07-31T09:11:10;21.10;99.90
7518;DHT22;3800;48.922;9.444;2023-07-31T09:13:38;21.20;99.90
7518;DHT22;3800;48.922;9.444;2023-07-31T09:16:07;21.10;99.90
7518;DHT22;3800;48.922;9.444;2023-07-31T09:18:54;21.00;99.90
7518;DHT22;3800;48.922;9.444;2023-07-31T09:21:24;20.90;99.90
7518;DHT22;3800;48.922;9.444;2023-07-31T09:23:53;20.90;99.90
7518;DHT22;3800;48.922;9.444;2023-07-31T09:26:36;20.90;99.90
7518;DHT22;3800;48.922;9.444;2023-07-31T09:29:06;20.90;99.90
7518;DHT22;3800;48.922;9.444;2023-07-31T09:31:39;20.80;99.90
7518;DHT22;3800;48.922;9.444;2023-07-31T09:34:07;20.60;99.90
7518;DHT22;3800;48.922;9.444;2023-07-31T09:36:42;20.60;99.90
7518;DHT22;3800;48.922;9.444;2023-07-31T09:39:11;20.50;99.90
7518;DHT22;3800;48.922;9.444;2023-07-31T09:41:41;20.50;99.90
7518;DHT22;3800;48.922;9.444;2023-07-31T09:44:08;20.50;99.90
7518;DHT22;3800;48.922;9.444;2023-07-31T09:46:37;20.50;99.90
7518;DHT22;3800;48.922;9.444;2023-07-31T09:49:09;20.60;99.90
7518;DHT22;3800;48.922;9.444;2023-07-31T09:51:39;20.70;99.90
7518;DHT22;3800;48.922;9.444;2023-07-31T09:54:11;20.70;99.90
7518;DHT22;3800;48.922;9.444;2023-07-31T09:56:43;20.70;99.90
7518;DHT22;3800;48.922;9.444;2023-07-31T09:59:12;20.70;99.90
7518;DHT22;3800;48.922;9.444;2023-07-31T10:01:40;20.80;99.90
7518;DHT22;3800;48.922;9.444;2023-07-31T10:04:09;20.70;99.90
7518;DHT22;3800;48.922;9.444;2023-07-31T10:06:38;20.70;99.90
7518;DHT22;3800;48.922;9.444;2023-07-31T10:09:07;20.70;99.90
7518;DHT22;3800;48.922;9.444;2023-07-31T10:11:38;20.70;99.90
7518;DHT22;3800;48.922;9.444;2023-07-31T10:14:07;20.70;99.90
7518;DHT22;3800;48.922;9.444;2023-07-31T10:16:37;20.70;99.90
7518;DHT22;3800;48.922;9.444;2023-07-31T10:19:03;20.80;99.90
7518;DHT22;3800;48.922;9.444;2023-07-31T10:21:31;20.80;99.90
7518;DHT22;3800;48.922;9.444;2023-07-31T10:24:04;21.00;99.90
7518;DHT22;3800;48.922;9.444;2023-07-31T10:26:33;21.00;99.90
7518;DHT22;3800;48.922;9.444;2023-07-31T10:29:01;21.00;99.90
7518;DHT22;3800;48.922;9.444;2023-07-31T10:31:29;21.10;99.90
7518;DHT22;3800;48.922;9.444;2023-07-31T10:33:58;21.00;99.90
7518;DHT22;3800;48.922;9.444;2023-07-31T10:36:28;21.00;99.90
7518;DHT22;3800;48.922;9.444;2023-07-31T10:38:57;21.00;99.90
7518;DHT22;3800;48.922;9.444;2023-07-31T10:41:29;20.90;99.90
7518;DHT22;3800;48.922;9.444;2023-07-31T10:44:00;20.80;99.90
7518;DHT22;3800;48.922;9.444;2023-07-31T10:46:28;20.80;99.90
7518;DHT22;3800;48.922;9.444;2023-07-31T10:48:58;20.80;99.90
7518;DHT22;3800;48.922;9.444;2023-07-31T10:51:33;20.90;99.90
7518;DHT22;3800;48.922;9.444;2023-07-31T10:54:10;20.90;99.90
7518;DHT22;3800;48.922;9.444;2023-07-31T10:56:38;20.90;99.90
7518;DHT22;3800;48.922;9.444;2023-07-31T10:59:07;20.90;99.90
7518;DHT22;3800;48.922;9.444;2023-07-31T11:04:21;20.90;99.90
7518;DHT22;3800;48.922;9.444;2023-07-31T11:06:56;21.00;99.90
7518;DHT22;3800;48.922;9.444;2023-07-31T11:09:29;21.00;99.90
7518;DHT22;3800;48.922;9.444;2023-07-31T11:11:58;21.00;99.90
7518;DHT22;3800;48.922;9.444;2023-07-31T11:14:27;21.10;99.90
7518;DHT22;3800;48.922;9.444;2023-07-31T11:16:55;21.10;99.90
7518;DHT22;3800;48.922;9.444;2023-07-31T11:19:24;21.20;99.90
7518;DHT22;3800;48.922;9.444;2023-07-31T11:21:52;21.30;99.90
7518;DHT22;3800;48.922;9.444;2023-07-31T11:24:21;21.40;99.90
7518;DHT22;3800;48.922;9.444;2023-07-31T11:26:51;21.70;99.90
7518;DHT22;3800;48.922;9.444;2023-07-31T11:29:20;21.90;99.90
7518;DHT22;3800;48.922;9.444;2023-07-31T11:31:48;22.10;99.90
7518;DHT22;3800;48.922;9.444;2023-07-31T11:34:17;22.10;99.90
7518;DHT22;3800;48.922;9.444;2023-07-31T11:36:52;22.10;99.90
7518;DHT22;3800;48.922;9.444;2023-07-31T11:39:20;22.10;99.90
7518;DHT22;3800;48.922;9.444;2023-07-31T11:41:49;22.20;99.90
7518;DHT22;3800;48.922;9.444;2023-07-31T11:44:17;22.40;99.90
7518;DHT22;3800;48.922;9.444;2023-07-31T11:46:46;22.50;99.90
7518;DHT22;3800;48.922;9.444;2023-07-31T11:49:15;22.50;99.90
7518;DHT22;3800;48.922;9.444;2023-07-31T11:51:43;22.50;99.90
7518;DHT22;3800;48.922;9.444;2023-07-31T11:54:12;22.50;99.90
7518;DHT22;3800;48.922;9.444;2023-07-31T11:56:40;22.50;99.90
7518;DHT22;3800;48.922;9.444;2023-07-31T11:59:08;22.40;99.90
7518;DHT22;3800;48.922;9.444;2023-07-31T12:01:37;22.30;99.90
7518;DHT22;3800;48.922;9.444;2023-07-31T12:04:06;22.20;99.90
7518;DHT22;3800;48.922;9.444;2023-07-31T12:06:35;22.20;99.90
7518;DHT22;3800;48.922;9.444;2023-07-31T12:09:03;22.20;99.90
7518;DHT22;3800;48.922;9.444;2023-07-31T12:11:31;22.30;99.90
7518;DHT22;3800;48.922;9.444;2023-07-31T12:14:00;22.30;99.90
7518;DHT22;3800;48.922;9.444;2023-07-31T12:16:28;22.30;99.90
7518;DHT22;3800;48.922;9.444;2023-07-31T12:18:57;22.30;99.90
7518;DHT22;3800;48.922;9.444;2023-07-31T12:21:26;22.30;99.90
7518;DHT22;3800;48.922;9.444;2023-07-31T12:23:54;22.30;99.90
7518;DHT22;3800;48.922;9.444;2023-07-31T12:26:23;22.30;99.90
7518;DHT22;3800;48.922;9.444;2023-07-31T12:28:54;22.30;99.90
7518;DHT22;3800;48.922;9.444;2023-07-31T12:31:21;22.50;99.90
7518;DHT22;3800;48.922;9.444;2023-07-31T12:33:50;22.40;99.90
7518;DHT22;3800;48.922;9.444;2023-07-31T12:36:21;22.40;99.90
7518;DHT22;3800;48.922;9.444;2023-07-31T12:38:50;22.30;99.90
7518;DHT22;3800;48.922;9.444;2023-07-31T12:41:20;22.40;99.90
7518;DHT22;3800;48.922;9.444;2023-07-31T12:43:48;22.30;99.90
7518;DHT22;3800;48.922;9.444;2023-07-31T12:46:18;22.40;99.90
7518;DHT22;3800;48.922;9.444;2023-07-31T12:48:47;22.50;99.90
7518;DHT22;3800;48.922;9.444;2023-07-31T12:51:15;22.50;99.90
7518;DHT22;3800;48.922;9.444;2023-07-31T12:53:43;22.70;99.90
7518;DHT22;3800;48.922;9.444;2023-07-31T12:56:11;22.80;99.90
7518;DHT22;3800;48.922;9.444;2023-07-31T12:58:40;22.90;99.90
7518;DHT22;3800;48.922;9.444;2023-07-31T13:01:10;22.90;99.90
7518;DHT22;3800;48.922;9.444;2023-07-31T13:03:38;22.90;99.90
7518;DHT22;3800;48.922;9.444;2023-07-31T13:06:06;22.90;99.90
7518;DHT22;3800;48.922;9.444;2023-07-31T13:08:34;22.80;99.90
7518;DHT22;3800;48.922;9.444;2023-07-31T13:11:03;22.80;99.90
7518;DHT22;3800;48.922;9.444;2023-07-31T13:13:31;22.70;99.90
7518;DHT22;3800;48.922;9.444;2023-07-31T13:15:59;22.70;99.90
7518;DHT22;3800;48.922;9.444;2023-07-31T13:18:27;22.70;99.90
7518;DHT22;3800;48.922;9.444;2023-07-31T13:20:56;22.60;99.90
7518;DHT22;3800;48.922;9.444;2023-07-31T13:23:25;22.50;99.90
7518;DHT22;3800;48.922;9.444;2023-07-31T13:25:53;22.50;99.90
7518;DHT22;3800;48.922;9.444;2023-07-31T13:28:21;22.40;99.90
7518;DHT22;3800;48.922;9.444;2023-07-31T13:30:49;22.40;99.90
7518;DHT22;3800;48.922;9.444;2023-07-31T13:33:18;22.30;99.90
7518;DHT22;3800;48.922;9.444;2023-07-31T13:35:47;22.30;99.90
7518;DHT22;3800;48.922;9.444;2023-07-31T13:38:15;22.30;99.90
7518;DHT22;3800;48.922;9.444;2023-07-31T13:40:43;22.20;99.90
7518;DHT22;3800;48.922;9.444;2023-07-31T13:43:12;22.20;99.90
7518;DHT22;3800;48.922;9.444;2023-07-31T13:45:40;22.20;99.90
7518;DHT22;3800;48.922;9.444;2023-07-31T13:48:08;22.20;99.90
7518;DHT22;3800;48.922;9.444;2023-07-31T13:50:36;22.20;99.90
7518;DHT22;3800;48.922;9.444;2023-07-31T13:53:05;22.20;99.90
7518;DHT22;3800;48.922;9.444;2023-07-31T13:55:34;22.20;99.90
7518;DHT22;3800;48.922;9.444;2023-07-31T13:58:02;22.20;99.90
7518;DHT22;3800;48.922;9.444;2023-07-31T14:00:30;22.20;99.90
7518;DHT22;3800;48.922;9.444;2023-07-31T14:02:59;22.20;99.90
7518;DHT22;3800;48.922;9.444;2023-07-31T14:05:27;22.20;99.90
7518;DHT22;3800;48.922;9.444;2023-07-31T14:07:55;22.20;99.90
7518;DHT22;3800;48.922;9.444;2023-07-31T14:10:26;22.20;99.90
7518;DHT22;3800;48.922;9.444;2023-07-31T14:12:54;22.20;99.90
7518;DHT22;3800;48.922;9.444;2023-07-31T14:15:23;22.20;99.90
7518;DHT22;3800;48.922;9.444;2023-07-31T14:17:51;22.20;99.90
7518;DHT22;3800;48.922;9.444;2023-07-31T14:20:21;22.20;99.90
7518;DHT22;3800;48.922;9.444;2023-07-31T14:22:49;22.20;99.90
7518;DHT22;3800;48.922;9.444;2023-07-31T14:25:17;22.30;99.90
7518;DHT22;3800;48.922;9.444;2023-07-31T14:27:45;22.40;99.90
7518;DHT22;3800;48.922;9.444;2023-07-31T14:30:15;22.50;99.90
7518;DHT22;3800;48.922;9.444;2023-07-31T14:32:43;22.60;99.90
7518;DHT22;3800;48.922;9.444;2023-07-31T14:35:12;22.60;99.90
7518;DHT22;3800;48.922;9.444;2023-07-31T14:37:40;22.60;99.90
7518;DHT22;3800;48.922;9.444;2023-07-31T14:40:09;22.60;99.90
7518;DHT22;3800;48.922;9.444;2023-07-31T14:42:39;22.80;99.90
7518;DHT22;3800;48.922;9.444;2023-07-31T14:45:07;22.80;99.90
7518;DHT22;3800;48.922;9.444;2023-07-31T14:47:36;22.80;99.90
7518;DHT22;3800;48.922;9.444;2023-07-31T14:50:05;22.80;99.90
7518;DHT22;3800;48.922;9.444;2023-07-31T14:52:35;22.80;99.90
7518;DHT22;3800;48.922;9.444;2023-07-31T14:55:04;22.80;99.90
7518;DHT22;3800;48.922;9.444;2023-07-31T14:57:34;22.70;99.90
7518;DHT22;3800;48.922;9.444;2023-07-31T15:00:03;22.70;99.90
7518;DHT22;3800;48.922;9.444;2023-07-31T15:02:32;22.70;99.90
7518;DHT22;3800;48.922;9.444;2023-07-31T15:05:03;22.80;99.90
7518;DHT22;3800;48.922;9.444;2023-07-31T15:07:33;22.90;99.90
7518;DHT22;3800;48.922;9.444;2023-07-31T15:10:02;22.90;99.90
7518;DHT22;3800;48.922;9.444;2023-07-31T15:12:30;22.90;99.90
7518;DHT22;3800;48.922;9.444;2023-07-31T15:14:58;22.80;99.90
7518;DHT22;3800;48.922;9.444;2023-07-31T15:17:27;22.80;99.90
7518;DHT22;3800;48.922;9.444;2023-07-31T15:19:55;22.80;99.90
7518;DHT22;3800;48.922;9.444;2023-07-31T15:22:23;22.80;99.90
7518;DHT22;3800;48.922;9.444;2023-07-31T15:24:51;22.80;99.90
7518;DHT22;3800;48.922;9.444;2023-07-31T15:27:20;22.90;99.90
7518;DHT22;3800;48.922;9.444;2023-07-31T15:29:49;22.90;99.90
7518;DHT22;3800;48.922;9.444;2023-07-31T15:32:16;23.00;99.90
7518;DHT22;3800;48.922;9.444;2023-07-31T15:34:45;23.00;99.90
7518;DHT22;3800;48.922;9.444;2023-07-31T15:37:14;23.00;99.90
7518;DHT22;3800;48.922;9.444;2023-07-31T15:39:42;23.00;99.90
7518;DHT22;3800;48.922;9.444;2023-07-31T15:42:11;23.00;99.90
7518;DHT22;3800;48.922;9.444;2023-07-31T15:44:39;23.00;99.90
7518;DHT22;3800;48.922;9.444;2023-07-31T15:47:07;23.10;99.90
7518;DHT22;3800;48.922;9.444;2023-07-31T15:49:36;23.20;99.90
7518;DHT22;3800;48.922;9.444;2023-07-31T15:52:06;23.10;99.90
7518;DHT22;3800;48.922;9.444;2023-07-31T15:54:34;23.10;99.90
7518;DHT22;3800;48.922;9.444;2023-07-31T15:57:02;23.10;99.90
7518;DHT22;3800;48.922;9.444;2023-07-31T15:59:31;23.10;99.90
7518;DHT22;3800;48.922;9.444;2023-07-31T16:02:00;23.10;99.90
7518;DHT22;3800;48.922;9.444;2023-07-31T16:04:29;23.10;99.90
7518;DHT22;3800;48.922;9.444;2023-07-31T16:06:58;23.20;99.90
7518;DHT22;3800;48.922;9.444;2023-07-31T16:09:26;23.20;99.90
7518;DHT22;3800;48.922;9.444;2023-07-31T16:11:54;23.20;99.90
7518;DHT22;3800;48.922;9.444;2023-07-31T16:14:23;23.10;99.90
7518;DHT22;3800;48.922;9.444;2023-07-31T16:16:51;23.10;99.90